sensor_id;sensor_type;location;lat;lon;timestamp;P1;P2;P0
73305;PMS5003;61530;51.158;0.880;2022-12-18T00:00:13;48;42;21
73305;PMS5003;61530;51.158;0.880;2022-12-18T00:01:17;43;36;18
73305;PMS5003;61530;51.158;0.880;2022-12-18T00:02:20;42;38;20
73305;PMS5003;61530;51.158;0.880;2022-12-18T00:03:24;40;32;19
73305;PMS5003;61530;51.158;0.880;2022-12-18T00:04:28;36;34;19
73305;PMS5003;61530;51.158;0.880;2022-12-18T00:05:32;43;36;20
73305;PMS5003;61530;51.158;0.880;2022-12-18T00:06:36;41;34;19
73305;PMS5003;61530;51.158;0.880;2022-12-18T00:07:40;38;32;19
73305;PMS5003;61530;51.158;0.880;2022-12-18T00:08:45;34;30;18
73305;PMS5003;61530;51.158;0.880;2022-12-18T00:09:48;43;40;19
73305;PMS5003;61530;51.158;0.880;2022-12-18T00:10:52;48;41;19
73305;PMS5003;61530;51.158;0.880;2022-12-18T00:11:58;37;33;20
73305;PMS5003;61530;51.158;0.880;2022-12-18T00:13:00;43;37;20
73305;PMS5003;61530;51.158;0.880;2022-12-18T00:14:04;47;36;20
73305;PMS5003;61530;51.158;0.880;2022-12-18T00:15:08;37;33;16
73305;PMS5003;61530;51.158;0.880;2022-12-18T00:16:12;41;34;18
73305;PMS5003;61530;51.158;0.880;2022-12-18T00:17:16;34;32;15
73305;PMS5003;61530;51.158;0.880;2022-12-18T00:18:20;36;34;19
73305;PMS5003;61530;51.158;0.880;2022-12-18T00:19:24;31;28;16
73305;PMS5003;61530;51.158;0.880;2022-12-18T00:20:28;33;29;16
73305;PMS5003;61530;51.158;0.880;2022-12-18T00:21:33;45;41;18
73305;PMS5003;61530;51.158;0.880;2022-12-18T00:22:36;48;36;20
73305;PMS5003;61530;51.158;0.880;2022-12-18T00:23:41;42;38;18
73305;PMS5003;61530;51.158;0.880;2022-12-18T00:24:44;39;36;15
73305;PMS5003;61530;51.158;0.880;2022-12-18T00:25:48;39;34;15
73305;PMS5003;61530;51.158;0.880;2022-12-18T00:26:52;40;32;18
73305;PMS5003;61530;51.158;0.880;2022-12-18T00:27:56;36;33;20
73305;PMS5003;61530;51.158;0.880;2022-12-18T00:29:00;55;39;18
73305;PMS5003;61530;51.158;0.880;2022-12-18T00:30:05;54;41;18
73305;PMS5003;61530;51.158;0.880;2022-12-18T00:31:08;34;33;18
73305;PMS5003;61530;51.158;0.880;2022-12-18T00:32:12;47;39;18
73305;PMS5003;61530;51.158;0.880;2022-12-18T00:33:16;40;32;16
73305;PMS5003;61530;51.158;0.880;2022-12-18T00:34:20;33;29;16
73305;PMS5003;61530;51.158;0.880;2022-12-18T00:35:24;46;38;19
73305;PMS5003;61530;51.158;0.880;2022-12-18T00:36:29;45;38;16
73305;PMS5003;61530;51.158;0.880;2022-12-18T00:37:33;34;28;15
73305;PMS5003;61530;51.158;0.880;2022-12-18T00:38:36;43;38;18
73305;PMS5003;61530;51.158;0.880;2022-12-18T00:39:40;34;25;14
73305;PMS5003;61530;51.158;0.880;2022-12-18T00:40:44;44;38;19
73305;PMS5003;61530;51.158;0.880;2022-12-18T00:41:48;36;29;15
73305;PMS5003;61530;51.158;0.880;2022-12-18T00:42:52;36;32;16
73305;PMS5003;61530;51.158;0.880;2022-12-18T00:43:56;48;41;19
73305;PMS5003;61530;51.158;0.880;2022-12-18T00:45:00;34;30;16
73305;PMS5003;61530;51.158;0.880;2022-12-18T00:46:04;38;33;16
73305;PMS5003;61530;51.158;0.880;2022-12-18T00:47:08;37;30;18
73305;PMS5003;61530;51.158;0.880;2022-12-18T00:48:12;34;29;16
73305;PMS5003;61530;51.158;0.880;2022-12-18T00:49:16;36;30;19
73305;PMS5003;61530;51.158;0.880;2022-12-18T00:50:20;41;38;16
73305;PMS5003;61530;51.158;0.880;2022-12-18T00:51:24;37;34;15
73305;PMS5003;61530;51.158;0.880;2022-12-18T00:52:28;37;33;19
73305;PMS5003;61530;51.158;0.880;2022-12-18T00:53:32;38;34;16
73305;PMS5003;61530;51.158;0.880;2022-12-18T00:54:36;38;32;15
73305;PMS5003;61530;51.158;0.880;2022-12-18T00:55:41;45;34;15
73305;PMS5003;61530;51.158;0.880;2022-12-18T00:56:44;43;37;14
73305;PMS5003;61530;51.158;0.880;2022-12-18T00:57:48;51;36;14
73305;PMS5003;61530;51.158;0.880;2022-12-18T00:58:52;41;34;16
73305;PMS5003;61530;51.158;0.880;2022-12-18T00:59:56;35;28;16
73305;PMS5003;61530;51.158;0.880;2022-12-18T01:01:00;46;33;15
73305;PMS5003;61530;51.158;0.880;2022-12-18T01:02:04;41;34;18
73305;PMS5003;61530;51.158;0.880;2022-12-18T01:03:08;39;31;14
73305;PMS5003;61530;51.158;0.880;2022-12-18T01:04:12;47;40;18
73305;PMS5003;61530;51.158;0.880;2022-12-18T01:05:16;32;25;15
73305;PMS5003;61530;51.158;0.880;2022-12-18T01:06:20;37;31;16
73305;PMS5003;61530;51.158;0.880;2022-12-18T01:07:24;34;29;15
73305;PMS5003;61530;51.158;0.880;2022-12-18T01:08:28;41;32;15
73305;PMS5003;61530;51.158;0.880;2022-12-18T01:09:32;42;33;16
73305;PMS5003;61530;51.158;0.880;2022-12-18T01:10:36;37;29;16
73305;PMS5003;61530;51.158;0.880;2022-12-18T01:11:40;34;31;14
73305;PMS5003;61530;51.158;0.880;2022-12-18T01:12:44;42;33;14
73305;PMS5003;61530;51.158;0.880;2022-12-18T01:13:48;34;28;16
73305;PMS5003;61530;51.158;0.880;2022-12-18T01:14:52;45;40;16
73305;PMS5003;61530;51.158;0.880;2022-12-18T01:15:56;36;33;15
73305;PMS5003;61530;51.158;0.880;2022-12-18T01:17:00;32;27;15
73305;PMS5003;61530;51.158;0.880;2022-12-18T01:18:04;34;26;16
73305;PMS5003;61530;51.158;0.880;2022-12-18T01:19:08;37;30;14
73305;PMS5003;61530;51.158;0.880;2022-12-18T01:20:12;41;28;15
73305;PMS5003;61530;51.158;0.880;2022-12-18T01:21:16;34;28;14
73305;PMS5003;61530;51.158;0.880;2022-12-18T01:22:20;34;25;15
73305;PMS5003;61530;51.158;0.880;2022-12-18T01:23:24;37;32;15
73305;PMS5003;61530;51.158;0.880;2022-12-18T01:24:28;39;29;14
73305;PMS5003;61530;51.158;0.880;2022-12-18T01:25:33;37;29;14
73305;PMS5003;61530;51.158;0.880;2022-12-18T01:26:36;42;38;16
73305;PMS5003;61530;51.158;0.880;2022-12-18T01:27:40;40;32;16
73305;PMS5003;61530;51.158;0.880;2022-12-18T01:28:44;44;35;15
73305;PMS5003;61530;51.158;0.880;2022-12-18T01:29:48;47;38;20
73305;PMS5003;61530;51.158;0.880;2022-12-18T01:30:52;37;25;14
73305;PMS5003;61530;51.158;0.880;2022-12-18T01:31:56;32;25;14
73305;PMS5003;61530;51.158;0.880;2022-12-18T01:33:00;33;25;14
73305;PMS5003;61530;51.158;0.880;2022-12-18T01:34:05;29;28;15
73305;PMS5003;61530;51.158;0.880;2022-12-18T01:35:08;32;31;15
73305;PMS5003;61530;51.158;0.880;2022-12-18T01:36:15;32;25;14
73305;PMS5003;61530;51.158;0.880;2022-12-18T01:37:16;41;33;15
73305;PMS5003;61530;51.158;0.880;2022-12-18T01:38:20;35;29;14
73305;PMS5003;61530;51.158;0.880;2022-12-18T01:39:24;35;31;16
73305;PMS5003;61530;51.158;0.880;2022-12-18T01:40:28;40;31;16
73305;PMS5003;61530;51.158;0.880;2022-12-18T01:41:32;47;33;15
73305;PMS5003;61530;51.158;0.880;2022-12-18T01:42:36;41;34;18
73305;PMS5003;61530;51.158;0.880;2022-12-18T01:43:41;34;29;14
73305;PMS5003;61530;51.158;0.880;2022-12-18T01:44:54;32;28;14
73305;PMS5003;61530;51.158;0.880;2022-12-18T01:45:48;43;37;15
73305;PMS5003;61530;51.158;0.880;2022-12-18T01:46:52;32;28;15
73305;PMS5003;61530;51.158;0.880;2022-12-18T01:47:57;40;32;18
73305;PMS5003;61530;51.158;0.880;2022-12-18T01:49:00;37;30;16
73305;PMS5003;61530;51.158;0.880;2022-12-18T01:50:05;43;34;15
73305;PMS5003;61530;51.158;0.880;2022-12-18T01:51:09;38;32;15
73305;PMS5003;61530;51.158;0.880;2022-12-18T01:52:12;38;34;15
73305;PMS5003;61530;51.158;0.880;2022-12-18T01:53:17;38;32;15
73305;PMS5003;61530;51.158;0.880;2022-12-18T01:54:20;32;29;15
73305;PMS5003;61530;51.158;0.880;2022-12-18T01:55:25;36;31;15
73305;PMS5003;61530;51.158;0.880;2022-12-18T01:56:28;36;29;16
73305;PMS5003;61530;51.158;0.880;2022-12-18T01:57:32;42;37;14
73305;PMS5003;61530;51.158;0.880;2022-12-18T01:58:39;38;33;18
73305;PMS5003;61530;51.158;0.880;2022-12-18T01:59:41;45;41;18
73305;PMS5003;61530;51.158;0.880;2022-12-18T02:00:44;39;30;16
73305;PMS5003;61530;51.158;0.880;2022-12-18T02:01:48;33;27;12
73305;PMS5003;61530;51.158;0.880;2022-12-18T02:02:52;32;30;16
73305;PMS5003;61530;51.158;0.880;2022-12-18T02:04:10;42;37;18
73305;PMS5003;61530;51.158;0.880;2022-12-18T02:05:00;36;34;19
73305;PMS5003;61530;51.158;0.880;2022-12-18T02:06:06;33;24;14
73305;PMS5003;61530;51.158;0.880;2022-12-18T02:07:10;36;31;16
73305;PMS5003;61530;51.158;0.880;2022-12-18T02:08:13;37;32;15
73305;PMS5003;61530;51.158;0.880;2022-12-18T02:09:17;43;38;19
73305;PMS5003;61530;51.158;0.880;2022-12-18T02:10:22;52;37;16
73305;PMS5003;61530;51.158;0.880;2022-12-18T02:11:26;47;40;16
73305;PMS5003;61530;51.158;0.880;2022-12-18T02:12:30;41;34;16
73305;PMS5003;61530;51.158;0.880;2022-12-18T02:13:34;46;38;16
73305;PMS5003;61530;51.158;0.880;2022-12-18T02:14:37;40;36;18
73305;PMS5003;61530;51.158;0.880;2022-12-18T02:15:41;44;33;19
73305;PMS5003;61530;51.158;0.880;2022-12-18T02:16:46;46;37;18
73305;PMS5003;61530;51.158;0.880;2022-12-18T02:17:50;36;31;16
73305;PMS5003;61530;51.158;0.880;2022-12-18T02:18:53;46;38;18
73305;PMS5003;61530;51.158;0.880;2022-12-18T02:20:01;53;46;19
73305;PMS5003;61530;51.158;0.880;2022-12-18T02:21:02;40;33;18
73305;PMS5003;61530;51.158;0.880;2022-12-18T02:22:07;35;33;14
73305;PMS5003;61530;51.158;0.880;2022-12-18T02:23:11;52;38;18
73305;PMS5003;61530;51.158;0.880;2022-12-18T02:24:17;50;47;20
73305;PMS5003;61530;51.158;0.880;2022-12-18T02:25:20;49;42;20
73305;PMS5003;61530;51.158;0.880;2022-12-18T02:26:20;42;38;21
73305;PMS5003;61530;51.158;0.880;2022-12-18T02:27:24;41;37;16
73305;PMS5003;61530;51.158;0.880;2022-12-18T02:28:29;46;40;19
73305;PMS5003;61530;51.158;0.880;2022-12-18T02:29:34;42;39;19
73305;PMS5003;61530;51.158;0.880;2022-12-18T02:30:36;48;42;20
73305;PMS5003;61530;51.158;0.880;2022-12-18T02:31:42;43;41;20
73305;PMS5003;61530;51.158;0.880;2022-12-18T02:32:45;43;33;18
73305;PMS5003;61530;51.158;0.880;2022-12-18T02:33:49;56;50;24
73305;PMS5003;61530;51.158;0.880;2022-12-18T02:34:52;37;34;19
73305;PMS5003;61530;51.158;0.880;2022-12-18T02:35:56;46;42;20
73305;PMS5003;61530;51.158;0.880;2022-12-18T02:37:01;43;43;21
73305;PMS5003;61530;51.158;0.880;2022-12-18T02:38:04;48;38;20
73305;PMS5003;61530;51.158;0.880;2022-12-18T02:39:09;52;47;20
73305;PMS5003;61530;51.158;0.880;2022-12-18T02:40:12;51;46;23
73305;PMS5003;61530;51.158;0.880;2022-12-18T02:41:16;58;45;20
73305;PMS5003;61530;51.158;0.880;2022-12-18T02:42:20;51;45;21
73305;PMS5003;61530;51.158;0.880;2022-12-18T02:43:24;58;49;21
73305;PMS5003;61530;51.158;0.880;2022-12-18T02:44:28;51;43;23
73305;PMS5003;61530;51.158;0.880;2022-12-18T02:45:32;46;43;20
73305;PMS5003;61530;51.158;0.880;2022-12-18T02:46:37;44;41;21
73305;PMS5003;61530;51.158;0.880;2022-12-18T02:47:40;52;40;19
73305;PMS5003;61530;51.158;0.880;2022-12-18T02:48:44;61;42;19
73305;PMS5003;61530;51.158;0.880;2022-12-18T02:49:51;46;34;19
73305;PMS5003;61530;51.158;0.880;2022-12-18T02:50:54;47;42;19
73305;PMS5003;61530;51.158;0.880;2022-12-18T02:51:58;53;40;20
73305;PMS5003;61530;51.158;0.880;2022-12-18T02:53:03;49;45;21
73305;PMS5003;61530;51.158;0.880;2022-12-18T02:54:06;59;45;20
73305;PMS5003;61530;51.158;0.880;2022-12-18T02:55:13;48;41;21
73305;PMS5003;61530;51.158;0.880;2022-12-18T02:56:13;47;34;18
73305;PMS5003;61530;51.158;0.880;2022-12-18T02:57:19;53;43;19
73305;PMS5003;61530;51.158;0.880;2022-12-18T02:58:20;51;36;21
73305;PMS5003;61530;51.158;0.880;2022-12-18T02:59:26;42;36;18
73305;PMS5003;61530;51.158;0.880;2022-12-18T03:00:28;46;40;21
73305;PMS5003;61530;51.158;0.880;2022-12-18T03:01:33;51;38;21
73305;PMS5003;61530;51.158;0.880;2022-12-18T03:02:37;43;37;19
73305;PMS5003;61530;51.158;0.880;2022-12-18T03:03:41;55;47;24
73305;PMS5003;61530;51.158;0.880;2022-12-18T03:04:46;54;45;20
73305;PMS5003;61530;51.158;0.880;2022-12-18T03:05:49;51;40;20
73305;PMS5003;61530;51.158;0.880;2022-12-18T03:06:53;48;43;21
73305;PMS5003;61530;51.158;0.880;2022-12-18T03:07:57;48;42;18
73305;PMS5003;61530;51.158;0.880;2022-12-18T03:09:00;49;40;19
73305;PMS5003;61530;51.158;0.880;2022-12-18T03:10:05;50;38;20
73305;PMS5003;61530;51.158;0.880;2022-12-18T03:11:08;39;38;19
73305;PMS5003;61530;51.158;0.880;2022-12-18T03:12:14;54;46;23
73305;PMS5003;61530;51.158;0.880;2022-12-18T03:13:17;45;37;21
73305;PMS5003;61530;51.158;0.880;2022-12-18T03:14:20;37;30;19
73305;PMS5003;61530;51.158;0.880;2022-12-18T03:15:25;47;39;21
73305;PMS5003;61530;51.158;0.880;2022-12-18T03:16:28;43;38;20
73305;PMS5003;61530;51.158;0.880;2022-12-18T03:17:33;46;43;21
73305;PMS5003;61530;51.158;0.880;2022-12-18T03:18:37;46;37;23
73305;PMS5003;61530;51.158;0.880;2022-12-18T03:19:40;48;45;20
73305;PMS5003;61530;51.158;0.880;2022-12-18T03:20:45;53;42;23
73305;PMS5003;61530;51.158;0.880;2022-12-18T03:21:49;47;41;21
73305;PMS5003;61530;51.158;0.880;2022-12-18T03:22:53;56;46;24
73305;PMS5003;61530;51.158;0.880;2022-12-18T03:23:56;52;43;21
73305;PMS5003;61530;51.158;0.880;2022-12-18T03:25:01;50;42;20
73305;PMS5003;61530;51.158;0.880;2022-12-18T03:26:05;50;43;20
73305;PMS5003;61530;51.158;0.880;2022-12-18T03:27:11;52;50;21
73305;PMS5003;61530;51.158;0.880;2022-12-18T03:28:12;60;50;25
73305;PMS5003;61530;51.158;0.880;2022-12-18T03:29:17;47;36;21
73305;PMS5003;61530;51.158;0.880;2022-12-18T03:30:20;48;43;21
73305;PMS5003;61530;51.158;0.880;2022-12-18T03:31:24;38;34;19
73305;PMS5003;61530;51.158;0.880;2022-12-18T03:32:29;53;46;20
73305;PMS5003;61530;51.158;0.880;2022-12-18T03:33:34;54;45;23
73305;PMS5003;61530;51.158;0.880;2022-12-18T03:34:37;55;48;20
73305;PMS5003;61530;51.158;0.880;2022-12-18T03:35:41;50;41;21
73305;PMS5003;61530;51.158;0.880;2022-12-18T03:36:44;48;38;19
73305;PMS5003;61530;51.158;0.880;2022-12-18T03:37:48;52;46;20
73305;PMS5003;61530;51.158;0.880;2022-12-18T03:38:52;44;42;21
73305;PMS5003;61530;51.158;0.880;2022-12-18T03:39:56;48;42;19
73305;PMS5003;61530;51.158;0.880;2022-12-18T03:41:01;46;42;20
73305;PMS5003;61530;51.158;0.880;2022-12-18T03:42:05;51;48;23
73305;PMS5003;61530;51.158;0.880;2022-12-18T03:43:08;55;44;24
73305;PMS5003;61530;51.158;0.880;2022-12-18T03:44:13;51;44;21
73305;PMS5003;61530;51.158;0.880;2022-12-18T03:45:19;50;39;18
73305;PMS5003;61530;51.158;0.880;2022-12-18T03:46:23;57;46;26
73305;PMS5003;61530;51.158;0.880;2022-12-18T03:47:25;44;38;23
73305;PMS5003;61530;51.158;0.880;2022-12-18T03:48:29;49;47;23
73305;PMS5003;61530;51.158;0.880;2022-12-18T03:49:33;62;48;26
73305;PMS5003;61530;51.158;0.880;2022-12-18T03:50:38;55;48;23
73305;PMS5003;61530;51.158;0.880;2022-12-18T03:51:42;63;53;25
73305;PMS5003;61530;51.158;0.880;2022-12-18T03:52:45;59;53;28
73305;PMS5003;61530;51.158;0.880;2022-12-18T03:53:49;57;46;23
73305;PMS5003;61530;51.158;0.880;2022-12-18T03:54:52;51;48;24
73305;PMS5003;61530;51.158;0.880;2022-12-18T03:55:56;56;43;21
73305;PMS5003;61530;51.158;0.880;2022-12-18T03:57:01;60;50;24
73305;PMS5003;61530;51.158;0.880;2022-12-18T03:58:04;56;49;23
73305;PMS5003;61530;51.158;0.880;2022-12-18T03:59:08;51;43;23
73305;PMS5003;61530;51.158;0.880;2022-12-18T04:00:13;46;37;21
73305;PMS5003;61530;51.158;0.880;2022-12-18T04:01:16;60;53;20
73305;PMS5003;61530;51.158;0.880;2022-12-18T04:02:20;49;47;20
73305;PMS5003;61530;51.158;0.880;2022-12-18T04:03:24;51;44;23
73305;PMS5003;61530;51.158;0.880;2022-12-18T04:04:28;54;43;19
73305;PMS5003;61530;51.158;0.880;2022-12-18T04:05:32;51;43;23
73305;PMS5003;61530;51.158;0.880;2022-12-18T04:06:36;54;46;23
73305;PMS5003;61530;51.158;0.880;2022-12-18T04:07:40;57;48;25
73305;PMS5003;61530;51.158;0.880;2022-12-18T04:08:44;55;47;24
73305;PMS5003;61530;51.158;0.880;2022-12-18T04:09:48;51;42;21
73305;PMS5003;61530;51.158;0.880;2022-12-18T04:10:52;62;52;24
73305;PMS5003;61530;51.158;0.880;2022-12-18T04:11:56;56;50;25
73305;PMS5003;61530;51.158;0.880;2022-12-18T04:13:00;47;42;20
73305;PMS5003;61530;51.158;0.880;2022-12-18T04:14:04;47;37;20
73305;PMS5003;61530;51.158;0.880;2022-12-18T04:15:08;51;41;21
73305;PMS5003;61530;51.158;0.880;2022-12-18T04:16:12;61;45;21
73305;PMS5003;61530;51.158;0.880;2022-12-18T04:17:16;47;43;20
73305;PMS5003;61530;51.158;0.880;2022-12-18T04:18:20;52;47;25
73305;PMS5003;61530;51.158;0.880;2022-12-18T04:19:24;56;46;27
73305;PMS5003;61530;51.158;0.880;2022-12-18T04:20:28;54;45;23
73305;PMS5003;61530;51.158;0.880;2022-12-18T04:21:32;54;46;23
73305;PMS5003;61530;51.158;0.880;2022-12-18T04:22:36;51;47;21
73305;PMS5003;61530;51.158;0.880;2022-12-18T04:23:40;46;37;20
73305;PMS5003;61530;51.158;0.880;2022-12-18T04:24:44;54;45;21
73305;PMS5003;61530;51.158;0.880;2022-12-18T04:25:48;51;46;21
73305;PMS5003;61530;51.158;0.880;2022-12-18T04:26:52;39;34;20
73305;PMS5003;61530;51.158;0.880;2022-12-18T04:27:56;47;43;21
73305;PMS5003;61530;51.158;0.880;2022-12-18T04:29:00;57;46;23
73305;PMS5003;61530;51.158;0.880;2022-12-18T04:30:04;51;41;23
73305;PMS5003;61530;51.158;0.880;2022-12-18T04:31:08;46;41;19
73305;PMS5003;61530;51.158;0.880;2022-12-18T04:32:12;47;43;23
73305;PMS5003;61530;51.158;0.880;2022-12-18T04:33:17;43;38;20
73305;PMS5003;61530;51.158;0.880;2022-12-18T04:34:20;55;47;23
73305;PMS5003;61530;51.158;0.880;2022-12-18T04:35:24;57;39;21
73305;PMS5003;61530;51.158;0.880;2022-12-18T04:36:28;46;38;20
73305;PMS5003;61530;51.158;0.880;2022-12-18T04:37:32;54;47;23
73305;PMS5003;61530;51.158;0.880;2022-12-18T04:38:36;59;43;20
73305;PMS5003;61530;51.158;0.880;2022-12-18T04:39:40;46;41;18
73305;PMS5003;61530;51.158;0.880;2022-12-18T04:40:44;38;38;21
73305;PMS5003;61530;51.158;0.880;2022-12-18T04:41:48;46;40;20
73305;PMS5003;61530;51.158;0.880;2022-12-18T04:42:52;50;43;20
73305;PMS5003;61530;51.158;0.880;2022-12-18T04:43:56;42;37;19
73305;PMS5003;61530;51.158;0.880;2022-12-18T04:45:00;47;41;21
73305;PMS5003;61530;51.158;0.880;2022-12-18T04:46:05;42;36;20
73305;PMS5003;61530;51.158;0.880;2022-12-18T04:47:08;45;41;19
73305;PMS5003;61530;51.158;0.880;2022-12-18T04:48:12;56;45;23
73305;PMS5003;61530;51.158;0.880;2022-12-18T04:49:16;43;38;21
73305;PMS5003;61530;51.158;0.880;2022-12-18T04:50:20;45;38;20
73305;PMS5003;61530;51.158;0.880;2022-12-18T04:51:24;45;37;20
73305;PMS5003;61530;51.158;0.880;2022-12-18T04:52:28;51;43;21
73305;PMS5003;61530;51.158;0.880;2022-12-18T04:53:32;55;50;26
73305;PMS5003;61530;51.158;0.880;2022-12-18T04:54:36;63;50;21
73305;PMS5003;61530;51.158;0.880;2022-12-18T04:55:40;56;47;21
73305;PMS5003;61530;51.158;0.880;2022-12-18T04:56:44;47;41;20
73305;PMS5003;61530;51.158;0.880;2022-12-18T04:57:48;53;46;21
73305;PMS5003;61530;51.158;0.880;2022-12-18T04:58:52;45;36;19
73305;PMS5003;61530;51.158;0.880;2022-12-18T04:59:56;37;32;19
73305;PMS5003;61530;51.158;0.880;2022-12-18T05:01:00;44;37;20
73305;PMS5003;61530;51.158;0.880;2022-12-18T05:02:04;55;42;20
73305;PMS5003;61530;51.158;0.880;2022-12-18T05:03:08;55;46;20
73305;PMS5003;61530;51.158;0.880;2022-12-18T05:04:12;49;37;22
73305;PMS5003;61530;51.158;0.880;2022-12-18T05:05:16;41;36;20
73305;PMS5003;61530;51.158;0.880;2022-12-18T05:06:20;44;33;18
73305;PMS5003;61530;51.158;0.880;2022-12-18T05:07:24;51;41;20
73305;PMS5003;61530;51.158;0.880;2022-12-18T05:08:28;44;40;19
73305;PMS5003;61530;51.158;0.880;2022-12-18T05:09:32;45;35;20
73305;PMS5003;61530;51.158;0.880;2022-12-18T05:10:36;45;39;19
73305;PMS5003;61530;51.158;0.880;2022-12-18T05:11:40;53;42;19
73305;PMS5003;61530;51.158;0.880;2022-12-18T05:12:44;57;42;19
73305;PMS5003;61530;51.158;0.880;2022-12-18T05:13:48;51;41;20
73305;PMS5003;61530;51.158;0.880;2022-12-18T05:14:52;40;35;20
73305;PMS5003;61530;51.158;0.880;2022-12-18T05:15:56;50;40;19
73305;PMS5003;61530;51.158;0.880;2022-12-18T05:17:00;45;37;19
73305;PMS5003;61530;51.158;0.880;2022-12-18T05:18:04;32;32;16
73305;PMS5003;61530;51.158;0.880;2022-12-18T05:19:08;46;33;18
73305;PMS5003;61530;51.158;0.880;2022-12-18T05:20:12;54;39;16
73305;PMS5003;61530;51.158;0.880;2022-12-18T05:21:16;50;42;18
73305;PMS5003;61530;51.158;0.880;2022-12-18T05:22:20;44;33;18
73305;PMS5003;61530;51.158;0.880;2022-12-18T05:23:24;36;34;14
73305;PMS5003;61530;51.158;0.880;2022-12-18T05:24:28;33;32;18
73305;PMS5003;61530;51.158;0.880;2022-12-18T05:25:32;37;36;18
73305;PMS5003;61530;51.158;0.880;2022-12-18T05:26:36;44;37;16
73305;PMS5003;61530;51.158;0.880;2022-12-18T05:27:40;39;36;23
73305;PMS5003;61530;51.158;0.880;2022-12-18T05:28:44;47;40;20
73305;PMS5003;61530;51.158;0.880;2022-12-18T05:29:48;46;36;18
73305;PMS5003;61530;51.158;0.880;2022-12-18T05:30:53;44;41;19
73305;PMS5003;61530;51.158;0.880;2022-12-18T05:31:56;42;41;22
73305;PMS5003;61530;51.158;0.880;2022-12-18T05:33:00;44;36;15
73305;PMS5003;61530;51.158;0.880;2022-12-18T05:34:04;41;35;19
73305;PMS5003;61530;51.158;0.880;2022-12-18T05:35:09;44;37;18
73305;PMS5003;61530;51.158;0.880;2022-12-18T05:36:12;50;36;19
73305;PMS5003;61530;51.158;0.880;2022-12-18T05:37:16;36;31;14
73305;PMS5003;61530;51.158;0.880;2022-12-18T05:38:20;42;35;19
73305;PMS5003;61530;51.158;0.880;2022-12-18T05:39:24;38;37;14
73305;PMS5003;61530;51.158;0.880;2022-12-18T05:40:28;33;29;16
73305;PMS5003;61530;51.158;0.880;2022-12-18T05:41:32;34;27;14
73305;PMS5003;61530;51.158;0.880;2022-12-18T05:42:36;41;31;16
73305;PMS5003;61530;51.158;0.880;2022-12-18T05:43:40;36;31;14
73305;PMS5003;61530;51.158;0.880;2022-12-18T05:44:44;25;24;16
73305;PMS5003;61530;51.158;0.880;2022-12-18T05:45:49;40;28;16
73305;PMS5003;61530;51.158;0.880;2022-12-18T05:46:52;32;27;12
73305;PMS5003;61530;51.158;0.880;2022-12-18T05:47:56;45;37;16
73305;PMS5003;61530;51.158;0.880;2022-12-18T05:49:00;31;29;15
73305;PMS5003;61530;51.158;0.880;2022-12-18T05:50:05;38;30;16
73305;PMS5003;61530;51.158;0.880;2022-12-18T05:51:09;37;36;16
73305;PMS5003;61530;51.158;0.880;2022-12-18T05:52:12;45;34;15
73305;PMS5003;61530;51.158;0.880;2022-12-18T05:53:16;33;27;15
73305;PMS5003;61530;51.158;0.880;2022-12-18T05:54:20;42;37;20
73305;PMS5003;61530;51.158;0.880;2022-12-18T05:55:24;37;30;16
73305;PMS5003;61530;51.158;0.880;2022-12-18T05:56:28;42;32;12
73305;PMS5003;61530;51.158;0.880;2022-12-18T05:57:32;37;33;16
73305;PMS5003;61530;51.158;0.880;2022-12-18T05:58:36;32;29;15
73305;PMS5003;61530;51.158;0.880;2022-12-18T05:59:40;33;25;15
73305;PMS5003;61530;51.158;0.880;2022-12-18T06:00:45;39;34;15
73305;PMS5003;61530;51.158;0.880;2022-12-18T06:01:48;41;36;18
73305;PMS5003;61530;51.158;0.880;2022-12-18T06:02:52;34;29;16
73305;PMS5003;61530;51.158;0.880;2022-12-18T06:03:56;28;23;15
73305;PMS5003;61530;51.158;0.880;2022-12-18T06:05:00;41;36;15
73305;PMS5003;61530;51.158;0.880;2022-12-18T06:06:04;32;29;16
73305;PMS5003;61530;51.158;0.880;2022-12-18T06:07:09;30;28;16
73305;PMS5003;61530;51.158;0.880;2022-12-18T06:08:12;33;29;18
73305;PMS5003;61530;51.158;0.880;2022-12-18T06:09:16;36;30;18
73305;PMS5003;61530;51.158;0.880;2022-12-18T06:10:20;42;40;15
73305;PMS5003;61530;51.158;0.880;2022-12-18T06:11:25;32;28;16
73305;PMS5003;61530;51.158;0.880;2022-12-18T06:12:28;43;37;18
73305;PMS5003;61530;51.158;0.880;2022-12-18T06:13:32;51;37;19
73305;PMS5003;61530;51.158;0.880;2022-12-18T06:14:36;38;32;20
73305;PMS5003;61530;51.158;0.880;2022-12-18T06:15:40;37;32;18
73305;PMS5003;61530;51.158;0.880;2022-12-18T06:16:44;37;32;21
73305;PMS5003;61530;51.158;0.880;2022-12-18T06:17:48;36;30;18
73305;PMS5003;61530;51.158;0.880;2022-12-18T06:18:52;51;39;19
73305;PMS5003;61530;51.158;0.880;2022-12-18T06:19:56;45;42;19
73305;PMS5003;61530;51.158;0.880;2022-12-18T06:21:00;47;41;20
73305;PMS5003;61530;51.158;0.880;2022-12-18T06:22:04;45;41;20
73305;PMS5003;61530;51.158;0.880;2022-12-18T06:23:08;55;41;24
73305;PMS5003;61530;51.158;0.880;2022-12-18T06:24:12;42;36;19
73305;PMS5003;61530;51.158;0.880;2022-12-18T06:25:16;49;38;21
73305;PMS5003;61530;51.158;0.880;2022-12-18T06:26:20;39;37;20
73305;PMS5003;61530;51.158;0.880;2022-12-18T06:27:24;37;32;18
73305;PMS5003;61530;51.158;0.880;2022-12-18T06:28:28;45;42;21
73305;PMS5003;61530;51.158;0.880;2022-12-18T06:29:32;43;38;23
73305;PMS5003;61530;51.158;0.880;2022-12-18T06:30:36;37;30;18
73305;PMS5003;61530;51.158;0.880;2022-12-18T06:31:40;51;42;21
73305;PMS5003;61530;51.158;0.880;2022-12-18T06:32:44;43;40;20
73305;PMS5003;61530;51.158;0.880;2022-12-18T06:33:48;41;37;18
73305;PMS5003;61530;51.158;0.880;2022-12-18T06:34:52;38;38;21
73305;PMS5003;61530;51.158;0.880;2022-12-18T06:35:59;48;43;24
73305;PMS5003;61530;51.158;0.880;2022-12-18T06:37:00;42;39;20
73305;PMS5003;61530;51.158;0.880;2022-12-18T06:38:04;48;41;20
73305;PMS5003;61530;51.158;0.880;2022-12-18T06:39:08;50;41;21
73305;PMS5003;61530;51.158;0.880;2022-12-18T06:40:12;47;41;20
73305;PMS5003;61530;51.158;0.880;2022-12-18T06:41:17;43;37;20
73305;PMS5003;61530;51.158;0.880;2022-12-18T06:42:20;44;39;21
73305;PMS5003;61530;51.158;0.880;2022-12-18T06:43:24;43;40;23
73305;PMS5003;61530;51.158;0.880;2022-12-18T06:44:28;41;33;19
73305;PMS5003;61530;51.158;0.880;2022-12-18T06:45:32;38;33;19
73305;PMS5003;61530;51.158;0.880;2022-12-18T06:46:36;46;34;20
73305;PMS5003;61530;51.158;0.880;2022-12-18T06:47:40;52;42;20
73305;PMS5003;61530;51.158;0.880;2022-12-18T06:48:46;46;39;21
73305;PMS5003;61530;51.158;0.880;2022-12-18T06:49:48;41;33;20
73305;PMS5003;61530;51.158;0.880;2022-12-18T06:50:53;39;36;24